x

Fripp Nearshore (frp 2) (41033) Weather Station

7:08pm - Mon 26th Sep 2016 All times are EDT. -4 hours from GMT.

  • Wind
    13mph, 20mph gusts
  • Sea Temp 81°f
  • Air Temp 78°f
  • Sea Pressure 1015.6mb
  • Fripp Nearshore (frp 2)
  • Fripp Nearshore (frp 2)

More Historic Weather Station data

Upgrade to MSW Pro to gain access to the past 30 days of data for over 8000 Wavebouys and Weather Stations around the globe.

Join Pro

Comparision Forecast

View Surf forecast
   
Mon 09/26 7:08pm 13 20 mph 1015.6mb 81f 78f
6:08pm 13 18 mph 1015.2mb 81f 77f
5:08pm 16 18 mph 1015.6mb 81f 78f
4:08pm 9 13 mph 1015.8mb 81f 78f
3:08pm 11 16 mph 1016.6mb 81f 78f
2:08pm 11 16 mph 1017.1mb 81f 78f
1:08pm 13 18 mph 1019.9mb 81f 78f
12:08pm 16 22 mph 1018.1mb 81f 77f
11:08am 13 20 mph 1018.1mb 81f 79f
10:08am 16 25 mph 1018.1mb 81f 78f
9:08am 16 22 mph 1017.3mb 81f 80f
8:08am 16 20 mph 1017.3mb 81f 79f
7:08am 13 18 mph 1017.2mb 81f 79f
6:08am 11 18 mph 1016.6mb 81f 79f
5:08am 18 22 mph 1016.1mb 81f 80f
4:08am 18 22 mph 1016.2mb 81f 80f
3:08am 18 25 mph 1016.6mb 81f 80f
2:08am 20 25 mph 1017.2mb 81f 80f
1:08am 18 22 mph 1017.3mb 81f 80f
12:08am 18 25 mph 1017.3mb 81f 80f
Sun 09/25 11:08pm 18 22 mph 1017.7mb 81f 80f
10:08pm 16 22 mph 1018.1mb 81f 80f
9:08pm 18 25 mph 1017.5mb 81f 81f
8:08pm 18 25 mph 1017.2mb 81f 80f
7:08pm 18 22 mph 1016.9mb 81f 80f
6:08pm 18 22 mph 1016.8mb 82f 81f
5:08pm 18 22 mph 1016.2mb 82f 82f
4:08pm 16 20 mph 1016.8mb 81f 83f
3:08pm 16 20 mph 1017.3mb 81f 82f
2:08pm 13 18 mph 1017.8mb 81f 85f
1:08pm 13 18 mph 1018.4mb 81f 85f
12:08pm 11 16 mph 1018.9mb 81f 80f
11:08am 13 18 mph 1019.1mb 81f 79f
10:08am 16 18 mph 1018.9mb 81f 78f
9:08am 13 16 mph 1018.7mb 81f 78f
8:08am 13 16 mph 1018.3mb 81f 78f
7:08am 11 13 mph 1017.6mb 81f 78f
6:08am 9 11 mph 1017mb 81f 79f
5:08am 7 11 mph 1016.4mb 81f 79f
4:08am 7 9 mph 1016.2mb 81f 79f
3:08am 4 7 mph 1016.4mb 81f 79f
2:08am 4 9 mph 1016.7mb 81f 80f
1:08am 7 9 mph 1016.8mb 81f 80f
12:08am 7 9 mph 1017mb 81f 80f
Sat 09/24 11:08pm 9 11 mph 1017.3mb 81f 80f
10:08pm 9 13 mph 1017.3mb 81f 80f
9:08pm 11 13 mph 1017.1mb 82f 80f
8:08pm 9 13 mph 1016.5mb 82f 80f
7:08pm 9 13 mph 1016.1mb 82f 80f
6:08pm 9 11 mph 1015.8mb 82f 82f
5:08pm 7 11 mph 1015.6mb 82f 84f
4:08pm 7 9 mph 1015.9mb 83f 85f
3:08pm 7 9 mph 1016.5mb 82f 87f
2:08pm 4 7 mph 1017.3mb 81f 87f
1:08pm 7
mph
1018mb 81f 87f
12:08pm 9 11 mph 1018.3mb 81f 85f
11:08am 11 13 mph 1018.1mb 81f 82f
10:08am 13 16 mph 1018mb 81f 81f
9:08am 13 16 mph 1017.7mb 81f 78f
8:08am 9 13 mph 1017.4mb 81f 76f
7:08am 11 16 mph 1016.9mb 81f 75f
6:08am 11 13 mph 1016.4mb 81f 76f
5:08am 9 11 mph 1015.8mb 81f 76f
4:08am 9 11 mph 1015.5mb 81f 76f
3:08am 9 11 mph 1015.5mb 81f 76f
2:08am 9 11 mph 1015.6mb 81f 77f
1:08am 9 11 mph 1015.7mb 81f 77f
12:08am 9 11 mph 1015.9mb 81f 77f
Fri 09/23 11:08pm 9 13 mph 1015.9mb 81f 77f
10:08pm 9 11 mph 1015.7mb 81f 77f
9:08pm 9 13 mph 1015.5mb 81f 78f
8:08pm 13 18 mph 1015.1mb 81f 78f
7:08pm 11 16 mph 1015.1mb 81f 80f
6:08pm 9 13 mph 1014.7mb 81f 80f
5:08pm 11 16 mph 1014.3mb 81f 81f
4:08pm 9 11 mph 1014.4mb 82f 86f
3:08pm 7 11 mph 1014.7mb 81f 85f
2:08pm 13 16 mph 1015.5mb 81f 80f
1:08pm 9 11 mph 1016.1mb 81f 79f
12:08pm 11 16 mph 1016.4mb 81f 77f
11:08am 9 11 mph 1016.6mb 81f 76f
10:08am 11 13 mph 1016.8mb 80f 76f
9:08am 9 11 mph 1016.5mb 80f 75f
8:08am 7 9 mph 1016.2mb 80f 75f
7:08am 7 9 mph 1015.5mb 80f 75f
6:08am 7 11 mph 1015.3mb 80f 75f
5:08am 7 9 mph 1014.9mb 81f 75f
4:08am 4 9 mph 1014.7mb 81f 75f
3:08am 7 9 mph 1014.6mb 81f 75f
2:08am 7 9 mph 1014.9mb 81f 75f
1:08am 11 13 mph 1014.8mb 81f 76f